sensor_id;sensor_type;location;lat;lon;timestamp;P1;durP1;ratioP1;P2;durP2;ratioP2
69126;SDS011;56688;50.234;19.292;2022-12-29T00:01:41;12.80;;;4.70;;
69126;SDS011;56688;50.234;19.292;2022-12-29T00:04:09;11.80;;;4.50;;
69126;SDS011;56688;50.234;19.292;2022-12-29T00:06:41;14.20;;;5.50;;
69126;SDS011;56688;50.234;19.292;2022-12-29T00:09:10;12.90;;;4.90;;
69126;SDS011;56688;50.234;19.292;2022-12-29T00:11:38;12.50;;;5.20;;
69126;SDS011;56688;50.234;19.292;2022-12-29T00:14:05;13.60;;;5.30;;
69126;SDS011;56688;50.234;19.292;2022-12-29T00:16:51;11.00;;;4.60;;
69126;SDS011;56688;50.234;19.292;2022-12-29T00:19:18;11.00;;;4.60;;
69126;SDS011;56688;50.234;19.292;2022-12-29T00:22:01;3.90;;;2.00;;
69126;SDS011;56688;50.234;19.292;2022-12-29T00:24:44;10.90;;;4.80;;
69126;SDS011;56688;50.234;19.292;2022-12-29T00:27:26;8.00;;;3.20;;
69126;SDS011;56688;50.234;19.292;2022-12-29T00:30:11;11.60;;;4.20;;
69126;SDS011;56688;50.234;19.292;2022-12-29T00:32:55;7.90;;;3.70;;
69126;SDS011;56688;50.234;19.292;2022-12-29T00:35:40;7.70;;;3.20;;
69126;SDS011;56688;50.234;19.292;2022-12-29T00:38:11;6.90;;;3.60;;
69126;SDS011;56688;50.234;19.292;2022-12-29T00:40:55;9.70;;;4.50;;
69126;SDS011;56688;50.234;19.292;2022-12-29T00:43:37;11.40;;;4.60;;
69126;SDS011;56688;50.234;19.292;2022-12-29T00:46:19;10.90;;;4.40;;
69126;SDS011;56688;50.234;19.292;2022-12-29T00:48:47;12.00;;;4.50;;
69126;SDS011;56688;50.234;19.292;2022-12-29T00:51:29;11.00;;;4.10;;
69126;SDS011;56688;50.234;19.292;2022-12-29T00:53:56;11.20;;;4.80;;
69126;SDS011;56688;50.234;19.292;2022-12-29T00:56:23;9.80;;;4.00;;
69126;SDS011;56688;50.234;19.292;2022-12-29T00:58:49;10.70;;;4.60;;
69126;SDS011;56688;50.234;19.292;2022-12-29T01:01:16;8.20;;;4.10;;
69126;SDS011;56688;50.234;19.292;2022-12-29T01:03:43;12.10;;;4.40;;
69126;SDS011;56688;50.234;19.292;2022-12-29T01:06:11;13.10;;;5.20;;
69126;SDS011;56688;50.234;19.292;2022-12-29T01:08:38;14.30;;;5.40;;
69126;SDS011;56688;50.234;19.292;2022-12-29T01:11:06;12.90;;;5.00;;
69126;SDS011;56688;50.234;19.292;2022-12-29T01:13:35;14.50;;;5.70;;
69126;SDS011;56688;50.234;19.292;2022-12-29T01:16:05;11.90;;;4.90;;
69126;SDS011;56688;50.234;19.292;2022-12-29T01:18:33;12.30;;;4.60;;
69126;SDS011;56688;50.234;19.292;2022-12-29T01:21:01;9.40;;;4.30;;
69126;SDS011;56688;50.234;19.292;2022-12-29T01:23:30;8.80;;;4.10;;
69126;SDS011;56688;50.234;19.292;2022-12-29T01:26:07;7.30;;;3.60;;
69126;SDS011;56688;50.234;19.292;2022-12-29T01:28:35;7.90;;;3.80;;
69126;SDS011;56688;50.234;19.292;2022-12-29T01:31:05;11.10;;;4.40;;
69126;SDS011;56688;50.234;19.292;2022-12-29T01:33:32;6.20;;;3.70;;
69126;SDS011;56688;50.234;19.292;2022-12-29T01:36:00;6.50;;;3.40;;
69126;SDS011;56688;50.234;19.292;2022-12-29T01:38:28;8.70;;;3.90;;
69126;SDS011;56688;50.234;19.292;2022-12-29T01:40:55;7.60;;;3.70;;
69126;SDS011;56688;50.234;19.292;2022-12-29T01:43:37;9.00;;;4.10;;
69126;SDS011;56688;50.234;19.292;2022-12-29T01:46:14;7.70;;;2.80;;
69126;SDS011;56688;50.234;19.292;2022-12-29T01:51:49;12.70;;;4.60;;
69126;SDS011;56688;50.234;19.292;2022-12-29T01:54:21;12.20;;;4.60;;
69126;SDS011;56688;50.234;19.292;2022-12-29T01:56:53;6.50;;;3.10;;
69126;SDS011;56688;50.234;19.292;2022-12-29T01:59:26;10.70;;;4.90;;
69126;SDS011;56688;50.234;19.292;2022-12-29T02:01:58;10.50;;;4.90;;
69126;SDS011;56688;50.234;19.292;2022-12-29T02:04:26;10.10;;;4.70;;
69126;SDS011;56688;50.234;19.292;2022-12-29T02:06:59;9.80;;;4.80;;
69126;SDS011;56688;50.234;19.292;2022-12-29T02:09:29;8.60;;;4.10;;
69126;SDS011;56688;50.234;19.292;2022-12-29T02:11:57;9.80;;;4.30;;
69126;SDS011;56688;50.234;19.292;2022-12-29T02:14:25;8.70;;;4.10;;
69126;SDS011;56688;50.234;19.292;2022-12-29T02:22:29;10.70;;;4.00;;
69126;SDS011;56688;50.234;19.292;2022-12-29T02:30:40;8.70;;;3.90;;
69126;SDS011;56688;50.234;19.292;2022-12-29T02:36:06;9.20;;;4.00;;
69126;SDS011;56688;50.234;19.292;2022-12-29T02:41:37;10.70;;;4.30;;
69126;SDS011;56688;50.234;19.292;2022-12-29T02:44:17;7.10;;;4.20;;
69126;SDS011;56688;50.234;19.292;2022-12-29T02:46:54;7.80;;;4.10;;
69126;SDS011;56688;50.234;19.292;2022-12-29T02:49:40;6.70;;;3.50;;
69126;SDS011;56688;50.234;19.292;2022-12-29T02:52:25;9.30;;;4.30;;
69126;SDS011;56688;50.234;19.292;2022-12-29T02:54:57;11.80;;;4.60;;
69126;SDS011;56688;50.234;19.292;2022-12-29T03:00:03;11.80;;;4.30;;
69126;SDS011;56688;50.234;19.292;2022-12-29T03:07:38;7.90;;;4.10;;
69126;SDS011;56688;50.234;19.292;2022-12-29T03:10:18;8.00;;;3.70;;
69126;SDS011;56688;50.234;19.292;2022-12-29T03:18:40;5.50;;;3.20;;
69126;SDS011;56688;50.234;19.292;2022-12-29T03:24:12;6.60;;;3.60;;
69126;SDS011;56688;50.234;19.292;2022-12-29T03:26:40;5.20;;;3.00;;
69126;SDS011;56688;50.234;19.292;2022-12-29T03:29:10;8.20;;;3.70;;
69126;SDS011;56688;50.234;19.292;2022-12-29T03:31:41;6.80;;;3.50;;
69126;SDS011;56688;50.234;19.292;2022-12-29T03:34:09;7.10;;;3.40;;
69126;SDS011;56688;50.234;19.292;2022-12-29T03:36:42;5.40;;;3.60;;
69126;SDS011;56688;50.234;19.292;2022-12-29T03:39:13;6.10;;;3.10;;
69126;SDS011;56688;50.234;19.292;2022-12-29T03:41:41;6.60;;;3.50;;
69126;SDS011;56688;50.234;19.292;2022-12-29T03:44:12;9.50;;;4.60;;
69126;SDS011;56688;50.234;19.292;2022-12-29T03:46:39;7.90;;;3.60;;
69126;SDS011;56688;50.234;19.292;2022-12-29T03:49:06;8.50;;;4.20;;
69126;SDS011;56688;50.234;19.292;2022-12-29T03:51:33;7.40;;;4.10;;
69126;SDS011;56688;50.234;19.292;2022-12-29T03:54:01;10.50;;;4.60;;
69126;SDS011;56688;50.234;19.292;2022-12-29T03:56:29;8.90;;;4.30;;
69126;SDS011;56688;50.234;19.292;2022-12-29T03:58:57;11.30;;;5.10;;
69126;SDS011;56688;50.234;19.292;2022-12-29T04:01:30;9.60;;;4.80;;
69126;SDS011;56688;50.234;19.292;2022-12-29T04:03:57;9.30;;;5.40;;
69126;SDS011;56688;50.234;19.292;2022-12-29T04:06:24;11.60;;;5.00;;
69126;SDS011;56688;50.234;19.292;2022-12-29T04:08:58;9.00;;;4.70;;
69126;SDS011;56688;50.234;19.292;2022-12-29T04:11:27;11.80;;;5.00;;
69126;SDS011;56688;50.234;19.292;2022-12-29T04:13:59;10.70;;;4.90;;
69126;SDS011;56688;50.234;19.292;2022-12-29T04:16:26;7.70;;;4.40;;
69126;SDS011;56688;50.234;19.292;2022-12-29T04:18:53;8.90;;;5.00;;
69126;SDS011;56688;50.234;19.292;2022-12-29T04:21:21;7.80;;;4.10;;
69126;SDS011;56688;50.234;19.292;2022-12-29T04:23:48;9.60;;;4.90;;
69126;SDS011;56688;50.234;19.292;2022-12-29T04:26:16;9.40;;;4.80;;
69126;SDS011;56688;50.234;19.292;2022-12-29T04:28:52;11.10;;;5.30;;
69126;SDS011;56688;50.234;19.292;2022-12-29T04:31:31;8.70;;;4.90;;
69126;SDS011;56688;50.234;19.292;2022-12-29T04:33:58;12.60;;;4.90;;
69126;SDS011;56688;50.234;19.292;2022-12-29T04:36:26;10.60;;;5.30;;
69126;SDS011;56688;50.234;19.292;2022-12-29T04:38:55;9.00;;;5.20;;
69126;SDS011;56688;50.234;19.292;2022-12-29T04:41:23;10.60;;;5.00;;
69126;SDS011;56688;50.234;19.292;2022-12-29T04:43:50;10.00;;;5.00;;
69126;SDS011;56688;50.234;19.292;2022-12-29T04:46:32;12.50;;;5.60;;
69126;SDS011;56688;50.234;19.292;2022-12-29T04:49:03;10.80;;;5.90;;
69126;SDS011;56688;50.234;19.292;2022-12-29T04:51:47;13.00;;;6.10;;
69126;SDS011;56688;50.234;19.292;2022-12-29T04:54:15;12.40;;;6.00;;
69126;SDS011;56688;50.234;19.292;2022-12-29T04:56:46;10.20;;;5.90;;
69126;SDS011;56688;50.234;19.292;2022-12-29T04:59:15;12.20;;;6.50;;
69126;SDS011;56688;50.234;19.292;2022-12-29T05:01:45;11.40;;;5.80;;
69126;SDS011;56688;50.234;19.292;2022-12-29T05:04:12;14.80;;;6.30;;
69126;SDS011;56688;50.234;19.292;2022-12-29T05:06:41;11.40;;;5.30;;
69126;SDS011;56688;50.234;19.292;2022-12-29T05:09:08;10.80;;;5.70;;
69126;SDS011;56688;50.234;19.292;2022-12-29T05:11:35;13.30;;;6.30;;
69126;SDS011;56688;50.234;19.292;2022-12-29T05:14:02;14.10;;;6.40;;
69126;SDS011;56688;50.234;19.292;2022-12-29T05:16:29;10.50;;;5.70;;
69126;SDS011;56688;50.234;19.292;2022-12-29T05:18:56;13.20;;;7.10;;
69126;SDS011;56688;50.234;19.292;2022-12-29T05:21:24;17.80;;;8.80;;
69126;SDS011;56688;50.234;19.292;2022-12-29T05:23:50;17.60;;;8.40;;
69126;SDS011;56688;50.234;19.292;2022-12-29T05:26:17;18.80;;;9.20;;
69126;SDS011;56688;50.234;19.292;2022-12-29T05:28:53;11.30;;;4.90;;
69126;SDS011;56688;50.234;19.292;2022-12-29T05:31:21;16.70;;;8.30;;
69126;SDS011;56688;50.234;19.292;2022-12-29T05:33:48;17.90;;;8.70;;
69126;SDS011;56688;50.234;19.292;2022-12-29T05:36:16;22.30;;;10.90;;
69126;SDS011;56688;50.234;19.292;2022-12-29T05:38:48;17.90;;;8.40;;
69126;SDS011;56688;50.234;19.292;2022-12-29T05:41:15;18.00;;;8.70;;
69126;SDS011;56688;50.234;19.292;2022-12-29T05:43:59;11.60;;;5.00;;
69126;SDS011;56688;50.234;19.292;2022-12-29T05:46:42;17.00;;;7.00;;
69126;SDS011;56688;50.234;19.292;2022-12-29T05:49:15;15.50;;;8.40;;
69126;SDS011;56688;50.234;19.292;2022-12-29T05:51:51;13.10;;;6.20;;
69126;SDS011;56688;50.234;19.292;2022-12-29T05:54:18;17.10;;;8.00;;
69126;SDS011;56688;50.234;19.292;2022-12-29T05:56:45;14.40;;;8.00;;
69126;SDS011;56688;50.234;19.292;2022-12-29T05:59:13;13.60;;;6.40;;
69126;SDS011;56688;50.234;19.292;2022-12-29T06:01:41;13.70;;;6.40;;
69126;SDS011;56688;50.234;19.292;2022-12-29T06:04:08;13.90;;;7.50;;
69126;SDS011;56688;50.234;19.292;2022-12-29T06:06:35;12.50;;;6.80;;
69126;SDS011;56688;50.234;19.292;2022-12-29T06:09:02;17.30;;;7.40;;
69126;SDS011;56688;50.234;19.292;2022-12-29T06:11:30;13.30;;;6.50;;
69126;SDS011;56688;50.234;19.292;2022-12-29T06:13:58;13.60;;;7.00;;
69126;SDS011;56688;50.234;19.292;2022-12-29T06:16:25;15.70;;;6.70;;
69126;SDS011;56688;50.234;19.292;2022-12-29T06:18:56;11.60;;;6.80;;
69126;SDS011;56688;50.234;19.292;2022-12-29T06:21:23;11.60;;;6.80;;
69126;SDS011;56688;50.234;19.292;2022-12-29T06:23:49;11.60;;;6.10;;
69126;SDS011;56688;50.234;19.292;2022-12-29T06:26:16;13.80;;;7.20;;
69126;SDS011;56688;50.234;19.292;2022-12-29T06:28:44;14.30;;;6.90;;
69126;SDS011;56688;50.234;19.292;2022-12-29T06:31:11;15.50;;;7.40;;
69126;SDS011;56688;50.234;19.292;2022-12-29T06:33:38;12.50;;;6.90;;
69126;SDS011;56688;50.234;19.292;2022-12-29T06:36:06;14.50;;;7.20;;
69126;SDS011;56688;50.234;19.292;2022-12-29T06:38:34;51.60;;;19.60;;
69126;SDS011;56688;50.234;19.292;2022-12-29T06:41:01;43.10;;;15.30;;
69126;SDS011;56688;50.234;19.292;2022-12-29T06:43:44;22.40;;;9.80;;
69126;SDS011;56688;50.234;19.292;2022-12-29T06:46:23;14.50;;;7.70;;
69126;SDS011;56688;50.234;19.292;2022-12-29T06:48:49;25.40;;;11.70;;
69126;SDS011;56688;50.234;19.292;2022-12-29T06:51:16;19.80;;;11.20;;
69126;SDS011;56688;50.234;19.292;2022-12-29T06:53:43;17.70;;;10.20;;
69126;SDS011;56688;50.234;19.292;2022-12-29T06:56:10;22.50;;;10.20;;
69126;SDS011;56688;50.234;19.292;2022-12-29T06:58:36;30.70;;;14.90;;
69126;SDS011;56688;50.234;19.292;2022-12-29T07:01:03;30.80;;;16.00;;
69126;SDS011;56688;50.234;19.292;2022-12-29T07:03:30;17.90;;;8.70;;
69126;SDS011;56688;50.234;19.292;2022-12-29T07:05:57;15.60;;;7.20;;
69126;SDS011;56688;50.234;19.292;2022-12-29T07:08:24;15.10;;;7.60;;
69126;SDS011;56688;50.234;19.292;2022-12-29T07:10:51;15.70;;;8.00;;
69126;SDS011;56688;50.234;19.292;2022-12-29T07:13:18;17.60;;;10.10;;
69126;SDS011;56688;50.234;19.292;2022-12-29T07:15:45;18.10;;;9.70;;
69126;SDS011;56688;50.234;19.292;2022-12-29T07:18:13;17.70;;;7.10;;
69126;SDS011;56688;50.234;19.292;2022-12-29T07:20:40;14.00;;;7.70;;
69126;SDS011;56688;50.234;19.292;2022-12-29T07:23:07;8.80;;;4.40;;
69126;SDS011;56688;50.234;19.292;2022-12-29T07:25:34;10.20;;;5.80;;
69126;SDS011;56688;50.234;19.292;2022-12-29T07:28:02;12.50;;;5.50;;
69126;SDS011;56688;50.234;19.292;2022-12-29T07:30:30;14.10;;;5.40;;
69126;SDS011;56688;50.234;19.292;2022-12-29T07:32:57;9.40;;;5.40;;
69126;SDS011;56688;50.234;19.292;2022-12-29T07:35:23;10.90;;;5.60;;
69126;SDS011;56688;50.234;19.292;2022-12-29T07:37:51;8.40;;;4.70;;
69126;SDS011;56688;50.234;19.292;2022-12-29T07:40:18;11.30;;;4.80;;
69126;SDS011;56688;50.234;19.292;2022-12-29T07:42:45;10.00;;;4.60;;
69126;SDS011;56688;50.234;19.292;2022-12-29T07:45:14;16.50;;;8.40;;
69126;SDS011;56688;50.234;19.292;2022-12-29T07:48:01;17.20;;;8.60;;
69126;SDS011;56688;50.234;19.292;2022-12-29T07:50:29;21.90;;;9.80;;
69126;SDS011;56688;50.234;19.292;2022-12-29T07:52:55;18.50;;;8.60;;
69126;SDS011;56688;50.234;19.292;2022-12-29T07:55:22;12.40;;;5.80;;
69126;SDS011;56688;50.234;19.292;2022-12-29T07:57:49;11.40;;;5.80;;
69126;SDS011;56688;50.234;19.292;2022-12-29T08:00:16;11.00;;;5.70;;
69126;SDS011;56688;50.234;19.292;2022-12-29T08:02:43;14.20;;;6.40;;
69126;SDS011;56688;50.234;19.292;2022-12-29T08:05:10;9.40;;;4.90;;
69126;SDS011;56688;50.234;19.292;2022-12-29T08:07:36;15.50;;;7.10;;
69126;SDS011;56688;50.234;19.292;2022-12-29T08:10:04;16.90;;;8.50;;
69126;SDS011;56688;50.234;19.292;2022-12-29T08:12:32;15.20;;;8.00;;
69126;SDS011;56688;50.234;19.292;2022-12-29T08:14:59;14.10;;;6.70;;
69126;SDS011;56688;50.234;19.292;2022-12-29T08:17:25;13.20;;;6.80;;
69126;SDS011;56688;50.234;19.292;2022-12-29T08:19:52;12.70;;;7.40;;
69126;SDS011;56688;50.234;19.292;2022-12-29T08:22:19;15.90;;;8.00;;
69126;SDS011;56688;50.234;19.292;2022-12-29T08:24:46;13.60;;;7.10;;
69126;SDS011;56688;50.234;19.292;2022-12-29T08:27:13;17.40;;;7.60;;
69126;SDS011;56688;50.234;19.292;2022-12-29T08:29:46;14.90;;;7.20;;
69126;SDS011;56688;50.234;19.292;2022-12-29T08:32:13;14.10;;;7.80;;
69126;SDS011;56688;50.234;19.292;2022-12-29T08:34:40;12.40;;;5.20;;
69126;SDS011;56688;50.234;19.292;2022-12-29T08:37:07;12.50;;;5.80;;
69126;SDS011;56688;50.234;19.292;2022-12-29T08:39:34;11.40;;;5.50;;
69126;SDS011;56688;50.234;19.292;2022-12-29T08:42:01;12.10;;;5.80;;
69126;SDS011;56688;50.234;19.292;2022-12-29T08:44:27;11.90;;;6.20;;
69126;SDS011;56688;50.234;19.292;2022-12-29T08:46:54;10.80;;;5.60;;
69126;SDS011;56688;50.234;19.292;2022-12-29T08:49:21;9.50;;;5.00;;
69126;SDS011;56688;50.234;19.292;2022-12-29T08:51:49;13.40;;;7.00;;
69126;SDS011;56688;50.234;19.292;2022-12-29T08:54:16;15.50;;;7.10;;
69126;SDS011;56688;50.234;19.292;2022-12-29T08:56:43;12.30;;;6.10;;
69126;SDS011;56688;50.234;19.292;2022-12-29T08:59:12;14.90;;;6.70;;
69126;SDS011;56688;50.234;19.292;2022-12-29T09:01:40;14.10;;;7.40;;
69126;SDS011;56688;50.234;19.292;2022-12-29T09:04:08;13.70;;;7.00;;
69126;SDS011;56688;50.234;19.292;2022-12-29T09:06:41;16.80;;;7.40;;
69126;SDS011;56688;50.234;19.292;2022-12-29T09:09:09;13.10;;;7.40;;
69126;SDS011;56688;50.234;19.292;2022-12-29T09:11:35;17.30;;;7.70;;
69126;SDS011;56688;50.234;19.292;2022-12-29T09:14:02;13.40;;;7.10;;
69126;SDS011;56688;50.234;19.292;2022-12-29T09:16:29;16.00;;;7.40;;
69126;SDS011;56688;50.234;19.292;2022-12-29T09:18:56;14.60;;;7.10;;
69126;SDS011;56688;50.234;19.292;2022-12-29T09:21:23;14.00;;;7.40;;
69126;SDS011;56688;50.234;19.292;2022-12-29T09:23:50;11.90;;;6.90;;
69126;SDS011;56688;50.234;19.292;2022-12-29T09:26:17;14.40;;;7.30;;
69126;SDS011;56688;50.234;19.292;2022-12-29T09:28:43;14.60;;;7.20;;
69126;SDS011;56688;50.234;19.292;2022-12-29T09:31:11;14.10;;;7.30;;
69126;SDS011;56688;50.234;19.292;2022-12-29T09:33:39;14.50;;;7.00;;
69126;SDS011;56688;50.234;19.292;2022-12-29T09:36:06;17.10;;;8.10;;
69126;SDS011;56688;50.234;19.292;2022-12-29T09:38:34;17.40;;;8.40;;
69126;SDS011;56688;50.234;19.292;2022-12-29T09:41:35;16.60;;;8.50;;
69126;SDS011;56688;50.234;19.292;2022-12-29T09:46:53;18.10;;;9.50;;
69126;SDS011;56688;50.234;19.292;2022-12-29T09:52:11;17.20;;;8.00;;
69126;SDS011;56688;50.234;19.292;2022-12-29T10:02:56;13.70;;;6.30;;
69126;SDS011;56688;50.234;19.292;2022-12-29T10:05:31;14.30;;;7.00;;
69126;SDS011;56688;50.234;19.292;2022-12-29T10:08:07;14.30;;;6.10;;
69126;SDS011;56688;50.234;19.292;2022-12-29T10:10:50;10.00;;;6.20;;
69126;SDS011;56688;50.234;19.292;2022-12-29T10:13:26;12.70;;;5.60;;
69126;SDS011;56688;50.234;19.292;2022-12-29T10:20:55;8.00;;;4.00;;
69126;SDS011;56688;50.234;19.292;2022-12-29T10:23:33;8.70;;;5.40;;
69126;SDS011;56688;50.234;19.292;2022-12-29T10:26:09;9.20;;;5.30;;
69126;SDS011;56688;50.234;19.292;2022-12-29T10:28:43;9.90;;;5.30;;
69126;SDS011;56688;50.234;19.292;2022-12-29T10:31:17;12.20;;;5.80;;
69126;SDS011;56688;50.234;19.292;2022-12-29T10:33:50;10.60;;;5.60;;
69126;SDS011;56688;50.234;19.292;2022-12-29T10:41:43;9.00;;;4.80;;
69126;SDS011;56688;50.234;19.292;2022-12-29T10:44:13;11.20;;;5.50;;
69126;SDS011;56688;50.234;19.292;2022-12-29T10:46:43;10.20;;;4.90;;
69126;SDS011;56688;50.234;19.292;2022-12-29T10:49:20;10.90;;;4.90;;
69126;SDS011;56688;50.234;19.292;2022-12-29T10:51:48;8.80;;;4.60;;
69126;SDS011;56688;50.234;19.292;2022-12-29T10:54:20;10.60;;;5.30;;
69126;SDS011;56688;50.234;19.292;2022-12-29T10:56:58;12.20;;;4.40;;
69126;SDS011;56688;50.234;19.292;2022-12-29T10:59:30;8.50;;;4.80;;
69126;SDS011;56688;50.234;19.292;2022-12-29T11:07:29;9.30;;;5.30;;
69126;SDS011;56688;50.234;19.292;2022-12-29T11:12:59;11.70;;;5.30;;
69126;SDS011;56688;50.234;19.292;2022-12-29T11:15:28;12.40;;;5.60;;
69126;SDS011;56688;50.234;19.292;2022-12-29T11:18:07;11.20;;;5.30;;
69126;SDS011;56688;50.234;19.292;2022-12-29T11:20:47;8.60;;;4.90;;
69126;SDS011;56688;50.234;19.292;2022-12-29T11:23:22;8.70;;;5.30;;
69126;SDS011;56688;50.234;19.292;2022-12-29T11:29:04;8.80;;;5.10;;
69126;SDS011;56688;50.234;19.292;2022-12-29T11:36:50;11.00;;;5.30;;
69126;SDS011;56688;50.234;19.292;2022-12-29T11:39:23;10.00;;;5.60;;
69126;SDS011;56688;50.234;19.292;2022-12-29T11:41:55;9.80;;;4.50;;
69126;SDS011;56688;50.234;19.292;2022-12-29T11:44:23;7.40;;;4.20;;
69126;SDS011;56688;50.234;19.292;2022-12-29T11:46:51;6.90;;;4.30;;
69126;SDS011;56688;50.234;19.292;2022-12-29T11:49:20;12.50;;;5.20;;
69126;SDS011;56688;50.234;19.292;2022-12-29T11:51:51;9.10;;;5.50;;
69126;SDS011;56688;50.234;19.292;2022-12-29T11:54:23;7.80;;;4.90;;
69126;SDS011;56688;50.234;19.292;2022-12-29T11:56:53;9.70;;;5.40;;
69126;SDS011;56688;50.234;19.292;2022-12-29T12:01:57;9.00;;;5.70;;
69126;SDS011;56688;50.234;19.292;2022-12-29T12:04:26;9.50;;;5.30;;
69126;SDS011;56688;50.234;19.292;2022-12-29T12:07:00;10.60;;;5.20;;
69126;SDS011;56688;50.234;19.292;2022-12-29T12:09:29;9.60;;;5.50;;
69126;SDS011;56688;50.234;19.292;2022-12-29T12:12:01;11.40;;;5.30;;
69126;SDS011;56688;50.234;19.292;2022-12-29T12:14:31;7.30;;;4.50;;
69126;SDS011;56688;50.234;19.292;2022-12-29T12:17:09;9.50;;;5.30;;
69126;SDS011;56688;50.234;19.292;2022-12-29T12:22:46;9.40;;;4.80;;
69126;SDS011;56688;50.234;19.292;2022-12-29T12:25:23;8.50;;;5.20;;
69126;SDS011;56688;50.234;19.292;2022-12-29T12:28:00;8.60;;;5.00;;
69126;SDS011;56688;50.234;19.292;2022-12-29T12:30:37;11.10;;;4.90;;
69126;SDS011;56688;50.234;19.292;2022-12-29T12:41:59;19.30;;;13.80;;
69126;SDS011;56688;50.234;19.292;2022-12-29T12:44:33;9.90;;;6.30;;
69126;SDS011;56688;50.234;19.292;2022-12-29T12:47:23;8.40;;;5.40;;
69126;SDS011;56688;50.234;19.292;2022-12-29T13:08:40;11.50;;;6.20;;
69126;SDS011;56688;50.234;19.292;2022-12-29T13:24:49;11.50;;;6.60;;
69126;SDS011;56688;50.234;19.292;2022-12-29T13:30:22;18.80;;;9.40;;
69126;SDS011;56688;50.234;19.292;2022-12-29T13:38:30;25.80;;;14.60;;
69126;SDS011;56688;50.234;19.292;2022-12-29T13:41:04;75.60;;;34.70;;
69126;SDS011;56688;50.234;19.292;2022-12-29T13:43:36;47.70;;;18.70;;
69126;SDS011;56688;50.234;19.292;2022-12-29T13:46:15;53.60;;;22.50;;
69126;SDS011;56688;50.234;19.292;2022-12-29T13:48:49;135.90;;;61.20;;
69126;SDS011;56688;50.234;19.292;2022-12-29T13:51:20;27.80;;;13.10;;
69126;SDS011;56688;50.234;19.292;2022-12-29T14:01:43;57.10;;;26.00;;
69126;SDS011;56688;50.234;19.292;2022-12-29T14:04:24;13.30;;;6.00;;
69126;SDS011;56688;50.234;19.292;2022-12-29T14:06:58;22.90;;;13.90;;
69126;SDS011;56688;50.234;19.292;2022-12-29T14:09:42;11.20;;;6.10;;
69126;SDS011;56688;50.234;19.292;2022-12-29T14:17:43;11.60;;;6.60;;
69126;SDS011;56688;50.234;19.292;2022-12-29T14:20:25;12.00;;;6.70;;
69126;SDS011;56688;50.234;19.292;2022-12-29T14:22:57;10.00;;;5.80;;
69126;SDS011;56688;50.234;19.292;2022-12-29T14:28:24;12.10;;;6.30;;
69126;SDS011;56688;50.234;19.292;2022-12-29T14:30:52;14.30;;;6.30;;
69126;SDS011;56688;50.234;19.292;2022-12-29T14:33:24;10.60;;;6.30;;
69126;SDS011;56688;50.234;19.292;2022-12-29T14:35:53;13.10;;;7.60;;
69126;SDS011;56688;50.234;19.292;2022-12-29T14:38:22;33.30;;;14.70;;
69126;SDS011;56688;50.234;19.292;2022-12-29T14:40:51;22.60;;;11.20;;
69126;SDS011;56688;50.234;19.292;2022-12-29T14:43:24;72.50;;;30.60;;
69126;SDS011;56688;50.234;19.292;2022-12-29T14:45:55;118.50;;;47.00;;
69126;SDS011;56688;50.234;19.292;2022-12-29T14:48:34;51.60;;;29.80;;
69126;SDS011;56688;50.234;19.292;2022-12-29T14:51:21;25.00;;;14.70;;
69126;SDS011;56688;50.234;19.292;2022-12-29T14:53:56;17.80;;;10.70;;
69126;SDS011;56688;50.234;19.292;2022-12-29T14:56:25;15.80;;;8.30;;
69126;SDS011;56688;50.234;19.292;2022-12-29T14:58:55;18.60;;;12.80;;
69126;SDS011;56688;50.234;19.292;2022-12-29T15:01:29;19.00;;;10.60;;
69126;SDS011;56688;50.234;19.292;2022-12-29T15:04:18;20.10;;;13.30;;
69126;SDS011;56688;50.234;19.292;2022-12-29T15:06:48;28.90;;;16.10;;
69126;SDS011;56688;50.234;19.292;2022-12-29T15:09:20;22.50;;;13.30;;
69126;SDS011;56688;50.234;19.292;2022-12-29T15:11:54;20.50;;;13.70;;
69126;SDS011;56688;50.234;19.292;2022-12-29T15:14:29;22.70;;;10.90;;
69126;SDS011;56688;50.234;19.292;2022-12-29T15:16:58;23.10;;;13.50;;
69126;SDS011;56688;50.234;19.292;2022-12-29T15:19:26;33.70;;;21.30;;
69126;SDS011;56688;50.234;19.292;2022-12-29T15:21:54;24.00;;;15.80;;
69126;SDS011;56688;50.234;19.292;2022-12-29T15:24:22;15.90;;;9.40;;
69126;SDS011;56688;50.234;19.292;2022-12-29T15:26:50;20.10;;;9.40;;
69126;SDS011;56688;50.234;19.292;2022-12-29T15:37:17;50.90;;;19.30;;
69126;SDS011;56688;50.234;19.292;2022-12-29T15:39:46;19.40;;;9.20;;
69126;SDS011;56688;50.234;19.292;2022-12-29T15:42:20;30.30;;;12.60;;
69126;SDS011;56688;50.234;19.292;2022-12-29T15:44:56;35.20;;;19.90;;
69126;SDS011;56688;50.234;19.292;2022-12-29T15:47:35;39.00;;;24.50;;
69126;SDS011;56688;50.234;19.292;2022-12-29T15:50:03;23.80;;;12.80;;
69126;SDS011;56688;50.234;19.292;2022-12-29T15:52:34;22.70;;;12.30;;
69126;SDS011;56688;50.234;19.292;2022-12-29T15:55:06;19.90;;;10.20;;
69126;SDS011;56688;50.234;19.292;2022-12-29T15:57:46;19.50;;;10.60;;
69126;SDS011;56688;50.234;19.292;2022-12-29T16:00:21;25.60;;;12.60;;
69126;SDS011;56688;50.234;19.292;2022-12-29T16:02:52;32.50;;;14.00;;
69126;SDS011;56688;50.234;19.292;2022-12-29T16:05:22;32.30;;;14.10;;
69126;SDS011;56688;50.234;19.292;2022-12-29T16:07:53;40.40;;;18.60;;
69126;SDS011;56688;50.234;19.292;2022-12-29T16:10:26;48.40;;;24.70;;
69126;SDS011;56688;50.234;19.292;2022-12-29T16:13:04;30.30;;;14.10;;
69126;SDS011;56688;50.234;19.292;2022-12-29T16:15:46;32.20;;;15.50;;
69126;SDS011;56688;50.234;19.292;2022-12-29T16:18:20;45.10;;;23.00;;
69126;SDS011;56688;50.234;19.292;2022-12-29T16:20:52;74.10;;;33.60;;
69126;SDS011;56688;50.234;19.292;2022-12-29T16:23:22;30.30;;;14.20;;
69126;SDS011;56688;50.234;19.292;2022-12-29T16:25:52;35.20;;;16.90;;
69126;SDS011;56688;50.234;19.292;2022-12-29T16:28:22;36.00;;;21.90;;
69126;SDS011;56688;50.234;19.292;2022-12-29T16:36:21;31.40;;;15.50;;
69126;SDS011;56688;50.234;19.292;2022-12-29T16:41:35;21.00;;;10.40;;
69126;SDS011;56688;50.234;19.292;2022-12-29T16:46:55;22.20;;;11.40;;
69126;SDS011;56688;50.234;19.292;2022-12-29T16:49:24;32.30;;;16.80;;
69126;SDS011;56688;50.234;19.292;2022-12-29T16:51:52;27.00;;;12.40;;
69126;SDS011;56688;50.234;19.292;2022-12-29T16:54:22;21.30;;;10.80;;
69126;SDS011;56688;50.234;19.292;2022-12-29T16:56:51;21.60;;;12.00;;
69126;SDS011;56688;50.234;19.292;2022-12-29T17:01:47;26.20;;;11.70;;
69126;SDS011;56688;50.234;19.292;2022-12-29T17:04:14;25.50;;;11.10;;
69126;SDS011;56688;50.234;19.292;2022-12-29T17:06:41;25.60;;;11.50;;
69126;SDS011;56688;50.234;19.292;2022-12-29T17:14:31;21.70;;;10.80;;
69126;SDS011;56688;50.234;19.292;2022-12-29T17:16:59;23.20;;;12.50;;
69126;SDS011;56688;50.234;19.292;2022-12-29T17:19:29;24.00;;;14.40;;
69126;SDS011;56688;50.234;19.292;2022-12-29T17:21:57;22.80;;;11.80;;
69126;SDS011;56688;50.234;19.292;2022-12-29T17:24:25;39.60;;;21.60;;
69126;SDS011;56688;50.234;19.292;2022-12-29T17:26:53;26.90;;;14.50;;
69126;SDS011;56688;50.234;19.292;2022-12-29T17:32:12;28.50;;;14.50;;
69126;SDS011;56688;50.234;19.292;2022-12-29T17:34:40;30.50;;;17.20;;
69126;SDS011;56688;50.234;19.292;2022-12-29T17:37:20;114.00;;;47.50;;
69126;SDS011;56688;50.234;19.292;2022-12-29T17:39:51;39.10;;;18.00;;
69126;SDS011;56688;50.234;19.292;2022-12-29T17:42:18;59.50;;;26.50;;